sensor_id;sensor_type;location;lat;lon;timestamp;pressure;altitude;pressure_sealevel;temperature;humidity
63607;BME280;51327;52.466;-1.938;2022-11-20T00:00:13;99260.16;;;4.54;100.00
63607;BME280;51327;52.466;-1.938;2022-11-20T00:02:38;99266.22;;;4.56;100.00
63607;BME280;51327;52.466;-1.938;2022-11-20T00:05:04;99253.94;;;4.55;100.00
63607;BME280;51327;52.466;-1.938;2022-11-20T00:07:32;99255.63;;;4.56;100.00
63607;BME280;51327;52.466;-1.938;2022-11-20T00:09:58;99253.00;;;4.56;100.00
63607;BME280;51327;52.466;-1.938;2022-11-20T00:12:24;99251.19;;;4.56;100.00
63607;BME280;51327;52.466;-1.938;2022-11-20T00:14:51;99253.78;;;4.58;100.00
63607;BME280;51327;52.466;-1.938;2022-11-20T00:17:17;99246.69;;;4.58;100.00
63607;BME280;51327;52.466;-1.938;2022-11-20T00:19:42;99251.13;;;4.58;100.00
63607;BME280;51327;52.466;-1.938;2022-11-20T00:22:11;99249.34;;;4.58;100.00
63607;BME280;51327;52.466;-1.938;2022-11-20T00:24:37;99244.06;;;4.58;100.00
63607;BME280;51327;52.466;-1.938;2022-11-20T00:27:02;99238.69;;;4.60;100.00
63607;BME280;51327;52.466;-1.938;2022-11-20T00:29:47;99238.69;;;4.60;100.00
63607;BME280;51327;52.466;-1.938;2022-11-20T00:32:22;99229.84;;;4.61;100.00
63607;BME280;51327;52.466;-1.938;2022-11-20T00:34:48;99233.34;;;4.62;100.00
63607;BME280;51327;52.466;-1.938;2022-11-20T00:37:19;99228.91;;;4.62;100.00
63607;BME280;51327;52.466;-1.938;2022-11-20T00:43:11;99223.63;;;4.62;100.00
63607;BME280;51327;52.466;-1.938;2022-11-20T00:46:18;99219.09;;;4.64;100.00
63607;BME280;51327;52.466;-1.938;2022-11-20T00:49:05;99216.47;;;4.64;100.00
63607;BME280;51327;52.466;-1.938;2022-11-20T00:51:49;99216.53;;;4.63;100.00
63607;BME280;51327;52.466;-1.938;2022-11-20T00:54:47;99221.75;;;4.64;100.00
63607;BME280;51327;52.466;-1.938;2022-11-20T00:57:30;99220.75;;;4.67;100.00
63607;BME280;51327;52.466;-1.938;2022-11-20T01:00:21;99206.56;;;4.68;100.00
63607;BME280;51327;52.466;-1.938;2022-11-20T01:03:36;99200.44;;;4.67;100.00
63607;BME280;51327;52.466;-1.938;2022-11-20T01:06:43;99194.22;;;4.68;100.00
63607;BME280;51327;52.466;-1.938;2022-11-20T01:09:13;99187.97;;;4.69;100.00
63607;BME280;51327;52.466;-1.938;2022-11-20T01:11:40;99189.78;;;4.69;100.00
63607;BME280;51327;52.466;-1.938;2022-11-20T01:14:07;99180.06;;;4.69;100.00
63607;BME280;51327;52.466;-1.938;2022-11-20T01:16:39;99178.25;;;4.70;100.00
63607;BME280;51327;52.466;-1.938;2022-11-20T01:19:05;99173.84;;;4.70;100.00
63607;BME280;51327;52.466;-1.938;2022-11-20T01:21:35;99160.63;;;4.70;100.00
63607;BME280;51327;52.466;-1.938;2022-11-20T01:24:04;99165.75;;;4.73;100.00
63607;BME280;51327;52.466;-1.938;2022-11-20T01:26:31;99155.16;;;4.73;100.00
63607;BME280;51327;52.466;-1.938;2022-11-20T01:28:57;99154.38;;;4.71;100.00
63607;BME280;51327;52.466;-1.938;2022-11-20T01:31:28;99136.81;;;4.70;100.00
63607;BME280;51327;52.466;-1.938;2022-11-20T01:33:55;99124.50;;;4.69;100.00
63607;BME280;51327;52.466;-1.938;2022-11-20T01:36:22;99118.38;;;4.69;100.00
63607;BME280;51327;52.466;-1.938;2022-11-20T01:39:13;99116.56;;;4.69;100.00
63607;BME280;51327;52.466;-1.938;2022-11-20T01:41:44;99117.53;;;4.68;100.00
63607;BME280;51327;52.466;-1.938;2022-11-20T01:47:36;99108.63;;;4.69;100.00
63607;BME280;51327;52.466;-1.938;2022-11-20T01:50:23;99093.72;;;4.68;100.00
63607;BME280;51327;52.466;-1.938;2022-11-20T01:53:05;99093.63;;;4.70;100.00
63607;BME280;51327;52.466;-1.938;2022-11-20T01:55:52;99088.44;;;4.68;100.00
63607;BME280;51327;52.466;-1.938;2022-11-20T01:58:24;99075.03;;;4.71;100.00
63607;BME280;51327;52.466;-1.938;2022-11-20T02:00:52;99063.59;;;4.71;100.00
63607;BME280;51327;52.466;-1.938;2022-11-20T02:03:25;99069.75;;;4.71;100.00
63607;BME280;51327;52.466;-1.938;2022-11-20T02:08:20;99060.88;;;4.72;100.00
63607;BME280;51327;52.466;-1.938;2022-11-20T02:10:48;99064.38;;;4.73;100.00
63607;BME280;51327;52.466;-1.938;2022-11-20T02:13:16;99062.59;;;4.73;100.00
63607;BME280;51327;52.466;-1.938;2022-11-20T02:16:03;99057.28;;;4.73;100.00
63607;BME280;51327;52.466;-1.938;2022-11-20T02:18:36;99050.13;;;4.75;100.00
63607;BME280;51327;52.466;-1.938;2022-11-20T02:21:18;99051.75;;;4.78;100.00
63607;BME280;51327;52.466;-1.938;2022-11-20T02:26:21;99042.03;;;4.78;100.00
63607;BME280;51327;52.466;-1.938;2022-11-20T02:28:50;99034.19;;;4.77;100.00
63607;BME280;51327;52.466;-1.938;2022-11-20T02:31:16;99024.47;;;4.77;100.00
63607;BME280;51327;52.466;-1.938;2022-11-20T02:33:42;99019.25;;;4.76;100.00
63607;BME280;51327;52.466;-1.938;2022-11-20T02:36:10;98998.94;;;4.76;100.00
63607;BME280;51327;52.466;-1.938;2022-11-20T02:38:37;99003.31;;;4.77;100.00
63607;BME280;51327;52.466;-1.938;2022-11-20T02:41:02;98999.72;;;4.78;100.00
63607;BME280;51327;52.466;-1.938;2022-11-20T02:43:30;98987.31;;;4.79;100.00
63607;BME280;51327;52.466;-1.938;2022-11-20T02:45:55;98998.69;;;4.81;100.00
63607;BME280;51327;52.466;-1.938;2022-11-20T02:48:21;98994.28;;;4.81;100.00
63607;BME280;51327;52.466;-1.938;2022-11-20T02:50:49;98992.47;;;4.82;100.00
63607;BME280;51327;52.466;-1.938;2022-11-20T02:53:14;98993.25;;;4.84;100.00
63607;BME280;51327;52.466;-1.938;2022-11-20T02:55:40;98980.03;;;4.84;100.00
63607;BME280;51327;52.466;-1.938;2022-11-20T02:58:08;98972.09;;;4.84;100.00
63607;BME280;51327;52.466;-1.938;2022-11-20T03:00:33;98988.63;;;4.88;100.00
63607;BME280;51327;52.466;-1.938;2022-11-20T03:02:59;98969.25;;;4.87;100.00
63607;BME280;51327;52.466;-1.938;2022-11-20T03:05:26;98980.63;;;4.89;100.00
63607;BME280;51327;52.466;-1.938;2022-11-20T03:07:52;98982.25;;;4.92;100.00
63607;BME280;51327;52.466;-1.938;2022-11-20T03:10:17;98977.72;;;4.94;100.00
63607;BME280;51327;52.466;-1.938;2022-11-20T03:12:45;98968.81;;;4.95;100.00
63607;BME280;51327;52.466;-1.938;2022-11-20T03:15:11;98967.06;;;4.95;100.00
63607;BME280;51327;52.466;-1.938;2022-11-20T03:17:37;98951.09;;;4.97;100.00
63607;BME280;51327;52.466;-1.938;2022-11-20T03:20:04;98941.38;;;4.97;100.00
63607;BME280;51327;52.466;-1.938;2022-11-20T03:22:31;98919.31;;;4.97;100.00
63607;BME280;51327;52.466;-1.938;2022-11-20T03:24:56;98922.84;;;4.97;100.00
63607;BME280;51327;52.466;-1.938;2022-11-20T03:27:24;98919.06;;;5.01;100.00
63607;BME280;51327;52.466;-1.938;2022-11-20T03:29:50;98910.28;;;5.01;100.00
63607;BME280;51327;52.466;-1.938;2022-11-20T03:32:17;98908.50;;;5.01;100.00
63607;BME280;51327;52.466;-1.938;2022-11-20T03:34:44;98914.56;;;5.03;100.00
63607;BME280;51327;52.466;-1.938;2022-11-20T03:37:10;98903.88;;;5.05;100.00
63607;BME280;51327;52.466;-1.938;2022-11-20T03:39:36;98909.09;;;5.07;100.00
63607;BME280;51327;52.466;-1.938;2022-11-20T03:42:04;98903.88;;;5.05;100.00
63607;BME280;51327;52.466;-1.938;2022-11-20T03:44:49;98905.50;;;5.08;100.00
63607;BME280;51327;52.466;-1.938;2022-11-20T03:47:17;98905.50;;;5.08;100.00
63607;BME280;51327;52.466;-1.938;2022-11-20T03:49:43;98895.88;;;5.07;100.00
63607;BME280;51327;52.466;-1.938;2022-11-20T03:52:08;98882.53;;;5.08;100.00
63607;BME280;51327;52.466;-1.938;2022-11-20T03:54:36;98884.16;;;5.11;100.00
63607;BME280;51327;52.466;-1.938;2022-11-20T03:57:01;98877.09;;;5.11;100.00
63607;BME280;51327;52.466;-1.938;2022-11-20T03:59:27;98875.22;;;5.13;100.00
63607;BME280;51327;52.466;-1.938;2022-11-20T04:01:55;98877.66;;;5.16;100.00
63607;BME280;51327;52.466;-1.938;2022-11-20T04:04:20;98868.97;;;5.14;100.00
63607;BME280;51327;52.466;-1.938;2022-11-20T04:06:46;98867.06;;;5.16;100.00
63607;BME280;51327;52.466;-1.938;2022-11-20T04:09:14;98862.56;;;5.18;100.00
63607;BME280;51327;52.466;-1.938;2022-11-20T04:11:42;98861.53;;;5.21;100.00
63607;BME280;51327;52.466;-1.938;2022-11-20T04:14:14;98858.88;;;5.21;100.00
63607;BME280;51327;52.466;-1.938;2022-11-20T04:16:43;98852.63;;;5.22;100.00
63607;BME280;51327;52.466;-1.938;2022-11-20T04:19:12;98851.69;;;5.23;100.00
63607;BME280;51327;52.466;-1.938;2022-11-20T04:21:39;98841.19;;;5.21;100.00
63607;BME280;51327;52.466;-1.938;2022-11-20T04:24:07;98844.53;;;5.25;100.00
63607;BME280;51327;52.466;-1.938;2022-11-20T04:26:32;98835.75;;;5.25;100.00
63607;BME280;51327;52.466;-1.938;2022-11-20T04:28:58;98840.06;;;5.26;100.00
63607;BME280;51327;52.466;-1.938;2022-11-20T04:31:27;98837.44;;;5.26;100.00
63607;BME280;51327;52.466;-1.938;2022-11-20T04:33:52;98828.53;;;5.27;100.00
63607;BME280;51327;52.466;-1.938;2022-11-20T04:36:19;98831.19;;;5.27;100.00
63607;BME280;51327;52.466;-1.938;2022-11-20T04:38:51;98839.03;;;5.28;100.00
63607;BME280;51327;52.466;-1.938;2022-11-20T04:41:18;98846.06;;;5.29;100.00
63607;BME280;51327;52.466;-1.938;2022-11-20T04:43:48;98843.22;;;5.32;100.00
63607;BME280;51327;52.466;-1.938;2022-11-20T04:46:20;98830.81;;;5.33;100.00
63607;BME280;51327;52.466;-1.938;2022-11-20T04:48:46;98827.25;;;5.34;100.00
63607;BME280;51327;52.466;-1.938;2022-11-20T04:51:11;98828.88;;;5.36;100.00
63607;BME280;51327;52.466;-1.938;2022-11-20T04:53:39;98838.41;;;5.39;100.00
63607;BME280;51327;52.466;-1.938;2022-11-20T04:56:06;98844.38;;;5.42;100.00
63607;BME280;51327;52.466;-1.938;2022-11-20T04:58:32;98838.91;;;5.46;100.00
63607;BME280;51327;52.466;-1.938;2022-11-20T05:01:08;98836.91;;;5.49;100.00
63607;BME280;51327;52.466;-1.938;2022-11-20T05:03:34;98839.41;;;5.52;100.00
63607;BME280;51327;52.466;-1.938;2022-11-20T05:06:02;98843.66;;;5.55;100.00
63607;BME280;51327;52.466;-1.938;2022-11-20T05:08:29;98845.28;;;5.57;100.00
63607;BME280;51327;52.466;-1.938;2022-11-20T05:10:59;98855.78;;;5.59;100.00
63607;BME280;51327;52.466;-1.938;2022-11-20T05:13:27;98852.94;;;5.62;100.00
63607;BME280;51327;52.466;-1.938;2022-11-20T05:15:53;98852.84;;;5.63;100.00
63607;BME280;51327;52.466;-1.938;2022-11-20T05:18:18;98856.34;;;5.64;100.00
63607;BME280;51327;52.466;-1.938;2022-11-20T05:20:46;98861.56;;;5.65;100.00
63607;BME280;51327;52.466;-1.938;2022-11-20T05:23:11;98853.72;;;5.64;100.00
63607;BME280;51327;52.466;-1.938;2022-11-20T05:25:37;98853.78;;;5.62;100.00
63607;BME280;51327;52.466;-1.938;2022-11-20T05:28:04;98860.97;;;5.60;100.00
63607;BME280;51327;52.466;-1.938;2022-11-20T05:30:30;98866.47;;;5.57;100.00
63607;BME280;51327;52.466;-1.938;2022-11-20T05:32:56;98871.25;;;5.51;100.00
63607;BME280;51327;52.466;-1.938;2022-11-20T05:35:23;98866.50;;;5.41;100.00
63607;BME280;51327;52.466;-1.938;2022-11-20T05:37:50;98878.41;;;5.34;100.00
63607;BME280;51327;52.466;-1.938;2022-11-20T05:40:19;98876.19;;;5.27;100.00
63607;BME280;51327;52.466;-1.938;2022-11-20T05:42:47;98874.84;;;5.19;100.00
63607;BME280;51327;52.466;-1.938;2022-11-20T05:45:12;98873.41;;;5.14;100.00
63607;BME280;51327;52.466;-1.938;2022-11-20T05:47:38;98876.47;;;5.06;100.00
63607;BME280;51327;52.466;-1.938;2022-11-20T05:50:05;98864.66;;;4.97;100.00
63607;BME280;51327;52.466;-1.938;2022-11-20T05:52:31;98878.28;;;4.90;100.00
63607;BME280;51327;52.466;-1.938;2022-11-20T05:54:57;98881.38;;;4.82;100.00
63607;BME280;51327;52.466;-1.938;2022-11-20T05:57:24;98874.63;;;4.76;100.00
63607;BME280;51327;52.466;-1.938;2022-11-20T05:59:50;98881.00;;;4.72;100.00
63607;BME280;51327;52.466;-1.938;2022-11-20T06:02:16;98879.56;;;4.67;100.00
63607;BME280;51327;52.466;-1.938;2022-11-20T06:04:43;98878.28;;;4.58;100.00
63607;BME280;51327;52.466;-1.938;2022-11-20T06:07:09;98881.38;;;4.50;100.00
63607;BME280;51327;52.466;-1.938;2022-11-20T06:09:35;98881.44;;;4.49;100.00
63607;BME280;51327;52.466;-1.938;2022-11-20T06:12:03;98886.13;;;4.44;100.00
63607;BME280;51327;52.466;-1.938;2022-11-20T06:14:28;98897.03;;;4.37;100.00
63607;BME280;51327;52.466;-1.938;2022-11-20T06:16:54;98890.19;;;4.33;100.00
63607;BME280;51327;52.466;-1.938;2022-11-20T06:19:27;98905.44;;;4.28;100.00
63607;BME280;51327;52.466;-1.938;2022-11-20T06:22:13;98898.84;;;4.19;100.00
63607;BME280;51327;52.466;-1.938;2022-11-20T06:24:44;98899.88;;;4.17;100.00
63607;BME280;51327;52.466;-1.938;2022-11-20T06:27:33;98898.50;;;4.10;100.00
63607;BME280;51327;52.466;-1.938;2022-11-20T06:30:34;98896.94;;;4.06;100.00
63607;BME280;51327;52.466;-1.938;2022-11-20T06:33:03;98902.47;;;4.01;100.00
63607;BME280;51327;52.466;-1.938;2022-11-20T06:35:29;98898.22;;;3.98;100.00
63607;BME280;51327;52.466;-1.938;2022-11-20T06:37:57;98884.16;;;3.81;100.00
63607;BME280;51327;52.466;-1.938;2022-11-20T06:40:29;98906.69;;;3.88;100.00
63607;BME280;51327;52.466;-1.938;2022-11-20T06:42:55;98895.28;;;3.87;100.00
63607;BME280;51327;52.466;-1.938;2022-11-20T06:45:56;98900.09;;;3.79;100.00
63607;BME280;51327;52.466;-1.938;2022-11-20T06:48:32;98897.69;;;3.74;100.00
63607;BME280;51327;52.466;-1.938;2022-11-20T06:51:24;98907.56;;;3.71;100.00
63607;BME280;51327;52.466;-1.938;2022-11-20T06:54:01;98898.88;;;3.69;100.00
63607;BME280;51327;52.466;-1.938;2022-11-20T06:56:27;98897.91;;;3.70;100.00
63607;BME280;51327;52.466;-1.938;2022-11-20T06:58:53;98903.38;;;3.67;100.00
63607;BME280;51327;52.466;-1.938;2022-11-20T07:01:25;98908.03;;;3.62;100.00
63607;BME280;51327;52.466;-1.938;2022-11-20T07:03:55;98912.53;;;3.60;100.00
63607;BME280;51327;52.466;-1.938;2022-11-20T07:06:22;98891.50;;;3.41;100.00
63607;BME280;51327;52.466;-1.938;2022-11-20T07:08:50;98923.38;;;3.53;100.00
63607;BME280;51327;52.466;-1.938;2022-11-20T07:11:35;98930.63;;;3.50;100.00
63607;BME280;51327;52.466;-1.938;2022-11-20T07:14:24;98925.41;;;3.48;100.00
63607;BME280;51327;52.466;-1.938;2022-11-20T07:16:51;98921.16;;;3.46;100.00
63607;BME280;51327;52.466;-1.938;2022-11-20T07:19:20;98921.28;;;3.43;100.00
63607;BME280;51327;52.466;-1.938;2022-11-20T07:22:41;98932.84;;;3.40;100.00
63607;BME280;51327;52.466;-1.938;2022-11-20T07:25:18;98927.78;;;3.35;100.00
63607;BME280;51327;52.466;-1.938;2022-11-20T07:28:04;98925.38;;;3.31;100.00
63607;BME280;51327;52.466;-1.938;2022-11-20T07:31:07;98920.28;;;3.28;100.00
63607;BME280;51327;52.466;-1.938;2022-11-20T07:33:50;98928.19;;;3.28;100.00
63607;BME280;51327;52.466;-1.938;2022-11-20T07:36:35;98930.97;;;3.25;100.00
63607;BME280;51327;52.466;-1.938;2022-11-20T07:39:14;98944.25;;;3.23;100.00
63607;BME280;51327;52.466;-1.938;2022-11-20T07:41:48;98957.44;;;3.23;100.00
63607;BME280;51327;52.466;-1.938;2022-11-20T07:44:42;98957.50;;;3.22;100.00
63607;BME280;51327;52.466;-1.938;2022-11-20T07:47:25;98957.50;;;3.22;100.00
63607;BME280;51327;52.466;-1.938;2022-11-20T07:49:54;98952.22;;;3.22;100.00
63607;BME280;51327;52.466;-1.938;2022-11-20T07:53:02;98944.47;;;3.19;100.00
63607;BME280;51327;52.466;-1.938;2022-11-20T07:55:46;98942.91;;;3.14;100.00
63607;BME280;51327;52.466;-1.938;2022-11-20T07:58:14;98956.94;;;3.15;100.00
63607;BME280;51327;52.466;-1.938;2022-11-20T08:00:43;98942.91;;;3.14;100.00
63607;BME280;51327;52.466;-1.938;2022-11-20T08:03:18;98949.97;;;3.14;100.00
63607;BME280;51327;52.466;-1.938;2022-11-20T08:06:15;98964.06;;;3.13;100.00
63607;BME280;51327;52.466;-1.938;2022-11-20T08:09:15;98969.44;;;3.11;100.00
63607;BME280;51327;52.466;-1.938;2022-11-20T08:12:15;98962.38;;;3.12;100.00
63607;BME280;51327;52.466;-1.938;2022-11-20T08:15:22;98952.50;;;3.16;100.00
63607;BME280;51327;52.466;-1.938;2022-11-20T08:18:10;98956.81;;;3.18;100.00
63607;BME280;51327;52.466;-1.938;2022-11-20T08:20:38;98967.13;;;3.23;100.00
63607;BME280;51327;52.466;-1.938;2022-11-20T08:23:36;98964.28;;;3.27;100.00
63607;BME280;51327;52.466;-1.938;2022-11-20T08:26:03;98966.75;;;3.30;100.00
63607;BME280;51327;52.466;-1.938;2022-11-20T08:28:33;98967.53;;;3.32;100.00
63607;BME280;51327;52.466;-1.938;2022-11-20T08:31:09;98968.38;;;3.33;100.00
63607;BME280;51327;52.466;-1.938;2022-11-20T08:33:58;98969.00;;;3.38;100.00
63607;BME280;51327;52.466;-1.938;2022-11-20T08:36:44;98964.44;;;3.42;100.00
63607;BME280;51327;52.466;-1.938;2022-11-20T08:39:27;98967.88;;;3.44;100.00
63607;BME280;51327;52.466;-1.938;2022-11-20T08:42:02;98967.94;;;3.42;100.00
63607;BME280;51327;52.466;-1.938;2022-11-20T08:44:42;98982.09;;;3.41;100.00
63607;BME280;51327;52.466;-1.938;2022-11-20T08:47:34;98978.50;;;3.42;100.00
63607;BME280;51327;52.466;-1.938;2022-11-20T08:50:38;98978.44;;;3.44;100.00
63607;BME280;51327;52.466;-1.938;2022-11-20T08:53:07;98983.72;;;3.44;100.00
63607;BME280;51327;52.466;-1.938;2022-11-20T08:56:02;98990.69;;;3.45;100.00
63607;BME280;51327;52.466;-1.938;2022-11-20T08:58:34;98955.41;;;3.28;100.00
63607;BME280;51327;52.466;-1.938;2022-11-20T09:01:23;99003.66;;;3.49;100.00
63607;BME280;51327;52.466;-1.938;2022-11-20T09:04:16;99002.81;;;3.49;100.00
63607;BME280;51327;52.466;-1.938;2022-11-20T09:15:44;99001.78;;;3.70;100.00
63607;BME280;51327;52.466;-1.938;2022-11-20T09:18:51;99001.63;;;3.73;100.00
63607;BME280;51327;52.466;-1.938;2022-11-20T09:22:18;98997.72;;;3.81;100.00
63607;BME280;51327;52.466;-1.938;2022-11-20T09:24:51;98989.63;;;3.84;100.00
63607;BME280;51327;52.466;-1.938;2022-11-20T09:27:19;98988.56;;;3.88;100.00
63607;BME280;51327;52.466;-1.938;2022-11-20T09:29:49;98993.78;;;3.89;100.00
63607;BME280;51327;52.466;-1.938;2022-11-20T09:32:17;98991.84;;;3.93;100.00
63607;BME280;51327;52.466;-1.938;2022-11-20T09:34:47;98998.59;;;3.98;100.00
63607;BME280;51327;52.466;-1.938;2022-11-20T09:37:17;98985.94;;;4.05;100.00
63607;BME280;51327;52.466;-1.938;2022-11-20T09:39:50;98986.47;;;4.12;100.00
63607;BME280;51327;52.466;-1.938;2022-11-20T09:45:54;98974.41;;;4.24;100.00
63607;BME280;51327;52.466;-1.938;2022-11-20T09:55:09;98974.38;;;4.41;100.00
63607;BME280;51327;52.466;-1.938;2022-11-20T09:57:46;98981.22;;;4.45;100.00
63607;BME280;51327;52.466;-1.938;2022-11-20T10:00:44;98983.69;;;4.48;100.00
63607;BME280;51327;52.466;-1.938;2022-11-20T10:03:42;98986.03;;;4.54;100.00
63607;BME280;51327;52.466;-1.938;2022-11-20T10:06:22;98979.53;;;4.60;100.00
63607;BME280;51327;52.466;-1.938;2022-11-20T10:09:01;98975.72;;;4.66;100.00
63607;BME280;51327;52.466;-1.938;2022-11-20T10:18:07;98986.41;;;4.80;100.00
63607;BME280;51327;52.466;-1.938;2022-11-20T10:23:24;98981.47;;;4.90;100.00
63607;BME280;51327;52.466;-1.938;2022-11-20T10:26:03;98972.44;;;4.94;100.00
63607;BME280;51327;52.466;-1.938;2022-11-20T10:31:03;98961.59;;;4.98;100.00
63607;BME280;51327;52.466;-1.938;2022-11-20T10:33:35;98965.66;;;5.04;100.00
63607;BME280;51327;52.466;-1.938;2022-11-20T10:36:19;98972.63;;;5.07;100.00
63607;BME280;51327;52.466;-1.938;2022-11-20T10:38:47;98973.13;;;5.13;100.00
63607;BME280;51327;52.466;-1.938;2022-11-20T10:41:23;98976.44;;;5.17;100.00
63607;BME280;51327;52.466;-1.938;2022-11-20T10:46:33;98982.75;;;5.30;100.00
63607;BME280;51327;52.466;-1.938;2022-11-20T10:48:59;98973.88;;;5.31;100.00
63607;BME280;51327;52.466;-1.938;2022-11-20T10:51:30;98981.72;;;5.33;100.00
63607;BME280;51327;52.466;-1.938;2022-11-20T10:54:03;98985.06;;;5.36;100.00
63607;BME280;51327;52.466;-1.938;2022-11-20T10:59:03;98995.47;;;5.39;100.00
63607;BME280;51327;52.466;-1.938;2022-11-20T11:01:39;98982.75;;;5.46;100.00
63607;BME280;51327;52.466;-1.938;2022-11-20T11:04:08;98985.81;;;5.54;100.00
63607;BME280;51327;52.466;-1.938;2022-11-20T11:06:46;98952.78;;;5.46;100.00
63607;BME280;51327;52.466;-1.938;2022-11-20T11:09:22;98978.00;;;5.67;100.00
63607;BME280;51327;52.466;-1.938;2022-11-20T11:11:52;98969.63;;;5.75;100.00
63607;BME280;51327;52.466;-1.938;2022-11-20T11:14:18;98971.91;;;5.81;100.00
63607;BME280;51327;52.466;-1.938;2022-11-20T11:16:51;98967.38;;;5.83;100.00
63607;BME280;51327;52.466;-1.938;2022-11-20T11:19:19;98969.84;;;5.86;100.00
63607;BME280;51327;52.466;-1.938;2022-11-20T11:21:47;98958.22;;;5.89;100.00
63607;BME280;51327;52.466;-1.938;2022-11-20T11:24:23;98949.91;;;5.95;100.00
63607;BME280;51327;52.466;-1.938;2022-11-20T11:26:56;98936.59;;;5.96;100.00
63607;BME280;51327;52.466;-1.938;2022-11-20T11:29:22;98928.44;;;5.99;100.00
63607;BME280;51327;52.466;-1.938;2022-11-20T11:31:48;98929.13;;;6.03;100.00
63607;BME280;51327;52.466;-1.938;2022-11-20T11:34:17;98938.59;;;6.07;100.00
63607;BME280;51327;52.466;-1.938;2022-11-20T11:36:52;98951.66;;;6.10;100.00
63607;BME280;51327;52.466;-1.938;2022-11-20T11:39:22;98932.84;;;6.15;100.00
63607;BME280;51327;52.466;-1.938;2022-11-20T11:41:49;98940.50;;;6.19;100.00
63607;BME280;51327;52.466;-1.938;2022-11-20T11:44:21;98937.56;;;6.24;100.00
63607;BME280;51327;52.466;-1.938;2022-11-20T11:47:10;98935.59;;;6.27;100.00
63607;BME280;51327;52.466;-1.938;2022-11-20T11:49:38;98930.94;;;6.31;100.00
63607;BME280;51327;52.466;-1.938;2022-11-20T11:54:40;98935.88;;;6.37;100.00
63607;BME280;51327;52.466;-1.938;2022-11-20T11:57:17;98942.72;;;6.41;100.00
63607;BME280;51327;52.466;-1.938;2022-11-20T12:02:30;98917.78;;;6.58;100.00
63607;BME280;51327;52.466;-1.938;2022-11-20T12:05:02;98921.50;;;6.70;100.00
63607;BME280;51327;52.466;-1.938;2022-11-20T12:07:41;98933.00;;;6.83;100.00
63607;BME280;51327;52.466;-1.938;2022-11-20T12:10:12;98928.63;;;6.97;100.00
63607;BME280;51327;52.466;-1.938;2022-11-20T12:12:45;98930.06;;;7.02;100.00
63607;BME280;51327;52.466;-1.938;2022-11-20T12:15:16;98929.63;;;7.08;100.00
63607;BME280;51327;52.466;-1.938;2022-11-20T12:17:47;98928.41;;;7.14;100.00
63607;BME280;51327;52.466;-1.938;2022-11-20T12:20:15;98933.50;;;7.17;100.00
63607;BME280;51327;52.466;-1.938;2022-11-20T12:22:54;98943.19;;;7.18;100.00
63607;BME280;51327;52.466;-1.938;2022-11-20T12:25:24;98936.16;;;7.17;100.00
63607;BME280;51327;52.466;-1.938;2022-11-20T12:28:16;98929.91;;;7.18;100.00
63607;BME280;51327;52.466;-1.938;2022-11-20T12:30:58;98935.97;;;7.20;100.00
63607;BME280;51327;52.466;-1.938;2022-11-20T12:33:32;98926.97;;;7.23;100.00
63607;BME280;51327;52.466;-1.938;2022-11-20T12:38:39;98917.72;;;7.28;100.00
63607;BME280;51327;52.466;-1.938;2022-11-20T12:41:17;98915.75;;;7.32;100.00
63607;BME280;51327;52.466;-1.938;2022-11-20T12:47:18;98923.84;;;7.43;100.00
63607;BME280;51327;52.466;-1.938;2022-11-20T12:49:52;98928.94;;;7.46;100.00
63607;BME280;51327;52.466;-1.938;2022-11-20T12:55:03;98934.09;;;7.49;100.00
63607;BME280;51327;52.466;-1.938;2022-11-20T13:00:08;98909.00;;;7.53;100.00
63607;BME280;51327;52.466;-1.938;2022-11-20T13:07:33;98891.69;;;7.61;100.00
63607;BME280;51327;52.466;-1.938;2022-11-20T13:10:02;98901.47;;;7.60;100.00
63607;BME280;51327;52.466;-1.938;2022-11-20T13:17:32;98899.56;;;7.62;100.00
63607;BME280;51327;52.466;-1.938;2022-11-20T13:20:03;98900.53;;;7.61;100.00
63607;BME280;51327;52.466;-1.938;2022-11-20T13:22:45;98905.84;;;7.61;100.00
63607;BME280;51327;52.466;-1.938;2022-11-20T13:27:59;98900.84;;;7.57;100.00
63607;BME280;51327;52.466;-1.938;2022-11-20T13:30:25;98907.09;;;7.56;100.00
63607;BME280;51327;52.466;-1.938;2022-11-20T13:35:41;98917.09;;;7.52;100.00
63607;BME280;51327;52.466;-1.938;2022-11-20T13:38:10;98912.09;;;7.47;100.00
63607;BME280;51327;52.466;-1.938;2022-11-20T13:40:50;98915.03;;;7.43;100.00
63607;BME280;51327;52.466;-1.938;2022-11-20T13:43:26;98921.59;;;7.37;100.00
63607;BME280;51327;52.466;-1.938;2022-11-20T13:45:56;98914.69;;;7.35;100.00
63607;BME280;51327;52.466;-1.938;2022-11-20T13:48:22;98915.81;;;7.30;100.00
63607;BME280;51327;52.466;-1.938;2022-11-20T13:51:09;98916.03;;;7.27;100.00
63607;BME280;51327;52.466;-1.938;2022-11-20T13:56:14;98915.78;;;7.18;100.00
63607;BME280;51327;52.466;-1.938;2022-11-20T14:01:46;98909.88;;;7.00;100.00
63607;BME280;51327;52.466;-1.938;2022-11-20T14:04:11;98907.91;;;6.89;100.00
63607;BME280;51327;52.466;-1.938;2022-11-20T14:06:42;98906.59;;;6.82;100.00
63607;BME280;51327;52.466;-1.938;2022-11-20T14:09:10;98915.88;;;6.75;100.00
63607;BME280;51327;52.466;-1.938;2022-11-20T14:11:47;98904.69;;;6.69;100.00
63607;BME280;51327;52.466;-1.938;2022-11-20T14:16:44;98912.19;;;6.63;100.00
63607;BME280;51327;52.466;-1.938;2022-11-20T14:19:23;98913.34;;;6.59;100.00
63607;BME280;51327;52.466;-1.938;2022-11-20T14:21:53;98927.63;;;6.56;100.00
63607;BME280;51327;52.466;-1.938;2022-11-20T14:24:23;98929.72;;;6.51;100.00
63607;BME280;51327;52.466;-1.938;2022-11-20T14:26:51;98925.66;;;6.45;100.00
63607;BME280;51327;52.466;-1.938;2022-11-20T14:29:22;98918.28;;;6.36;100.00
63607;BME280;51327;52.466;-1.938;2022-11-20T14:31:51;98924.78;;;6.31;100.00
63607;BME280;51327;52.466;-1.938;2022-11-20T14:34:21;98926.88;;;6.25;100.00
63607;BME280;51327;52.466;-1.938;2022-11-20T14:36:47;98910.22;;;6.23;100.00
63607;BME280;51327;52.466;-1.938;2022-11-20T14:39:24;98899.53;;;6.25;100.00
63607;BME280;51327;52.466;-1.938;2022-11-20T14:41:53;98900.09;;;6.30;100.00
63607;BME280;51327;52.466;-1.938;2022-11-20T14:44:21;98906.78;;;6.36;100.00
63607;BME280;51327;52.466;-1.938;2022-11-20T14:46:48;98906.50;;;6.40;100.00
63607;BME280;51327;52.466;-1.938;2022-11-20T14:49:15;98891.47;;;6.41;100.00